sensor_id;sensor_type;location;lat;lon;timestamp;P1;durP1;ratioP1;P2;durP2;ratioP2
4957;SDS011;2494;51.872;9.688;2023-06-26T00:00:14;10.23;;;9.33;;
4957;SDS011;2494;51.872;9.688;2023-06-26T00:03:02;10.50;;;9.70;;
4957;SDS011;2494;51.872;9.688;2023-06-26T00:05:49;10.53;;;9.83;;
4957;SDS011;2494;51.872;9.688;2023-06-26T00:08:35;10.33;;;9.63;;
4957;SDS011;2494;51.872;9.688;2023-06-26T00:11:20;9.57;;;8.97;;
4957;SDS011;2494;51.872;9.688;2023-06-26T00:14:06;10.40;;;9.47;;
4957;SDS011;2494;51.872;9.688;2023-06-26T00:16:52;9.67;;;8.90;;
4957;SDS011;2494;51.872;9.688;2023-06-26T00:19:40;9.80;;;9.20;;
4957;SDS011;2494;51.872;9.688;2023-06-26T00:22:27;9.20;;;8.50;;
4957;SDS011;2494;51.872;9.688;2023-06-26T00:25:12;10.50;;;9.80;;
4957;SDS011;2494;51.872;9.688;2023-06-26T00:27:58;10.17;;;9.57;;
4957;SDS011;2494;51.872;9.688;2023-06-26T00:30:43;10.40;;;9.50;;
4957;SDS011;2494;51.872;9.688;2023-06-26T00:33:30;9.27;;;8.67;;
4957;SDS011;2494;51.872;9.688;2023-06-26T00:36:16;9.50;;;8.80;;
4957;SDS011;2494;51.872;9.688;2023-06-26T00:39:03;9.53;;;8.83;;
4957;SDS011;2494;51.872;9.688;2023-06-26T00:41:49;10.17;;;9.37;;
4957;SDS011;2494;51.872;9.688;2023-06-26T00:44:34;9.57;;;8.87;;
4957;SDS011;2494;51.872;9.688;2023-06-26T00:47:19;9.60;;;8.70;;
4957;SDS011;2494;51.872;9.688;2023-06-26T00:50:05;9.40;;;8.77;;
4957;SDS011;2494;51.872;9.688;2023-06-26T00:52:50;10.80;;;10.00;;
4957;SDS011;2494;51.872;9.688;2023-06-26T00:55:37;9.53;;;8.83;;
4957;SDS011;2494;51.872;9.688;2023-06-26T00:58:23;9.63;;;8.97;;
4957;SDS011;2494;51.872;9.688;2023-06-26T01:01:11;9.50;;;8.90;;
4957;SDS011;2494;51.872;9.688;2023-06-26T01:03:59;11.13;;;10.30;;
4957;SDS011;2494;51.872;9.688;2023-06-26T01:06:44;10.87;;;10.03;;
4957;SDS011;2494;51.872;9.688;2023-06-26T01:09:33;11.23;;;10.37;;
4957;SDS011;2494;51.872;9.688;2023-06-26T01:12:20;10.70;;;9.67;;
4957;SDS011;2494;51.872;9.688;2023-06-26T01:15:06;11.27;;;10.37;;
4957;SDS011;2494;51.872;9.688;2023-06-26T01:17:52;9.93;;;9.23;;
4957;SDS011;2494;51.872;9.688;2023-06-26T01:20:37;10.80;;;9.90;;
4957;SDS011;2494;51.872;9.688;2023-06-26T01:23:30;11.90;;;10.77;;
4957;SDS011;2494;51.872;9.688;2023-06-26T01:26:22;11.33;;;10.33;;
4957;SDS011;2494;51.872;9.688;2023-06-26T01:29:08;10.97;;;10.07;;
4957;SDS011;2494;51.872;9.688;2023-06-26T01:31:55;11.53;;;10.43;;
4957;SDS011;2494;51.872;9.688;2023-06-26T01:34:40;9.97;;;9.27;;
4957;SDS011;2494;51.872;9.688;2023-06-26T01:37:26;10.53;;;9.83;;
4957;SDS011;2494;51.872;9.688;2023-06-26T01:40:11;11.27;;;10.43;;
4957;SDS011;2494;51.872;9.688;2023-06-26T01:42:58;11.30;;;10.50;;
4957;SDS011;2494;51.872;9.688;2023-06-26T01:45:43;11.07;;;10.27;;
4957;SDS011;2494;51.872;9.688;2023-06-26T01:48:31;9.80;;;9.20;;
4957;SDS011;2494;51.872;9.688;2023-06-26T01:51:21;10.80;;;10.00;;
4957;SDS011;2494;51.872;9.688;2023-06-26T01:54:10;11.53;;;10.70;;
4957;SDS011;2494;51.872;9.688;2023-06-26T01:56:57;10.30;;;9.50;;
4957;SDS011;2494;51.872;9.688;2023-06-26T01:59:45;10.67;;;9.87;;
4957;SDS011;2494;51.872;9.688;2023-06-26T02:02:31;10.50;;;9.70;;
4957;SDS011;2494;51.872;9.688;2023-06-26T02:05:16;10.10;;;9.33;;
4957;SDS011;2494;51.872;9.688;2023-06-26T02:08:01;10.80;;;10.10;;
4957;SDS011;2494;51.872;9.688;2023-06-26T02:10:47;11.73;;;10.57;;
4957;SDS011;2494;51.872;9.688;2023-06-26T02:13:32;10.83;;;9.87;;
4957;SDS011;2494;51.872;9.688;2023-06-26T02:16:19;10.20;;;9.50;;
4957;SDS011;2494;51.872;9.688;2023-06-26T02:19:07;10.70;;;9.70;;
4957;SDS011;2494;51.872;9.688;2023-06-26T02:21:55;9.70;;;8.97;;
4957;SDS011;2494;51.872;9.688;2023-06-26T02:24:41;9.87;;;9.17;;
4957;SDS011;2494;51.872;9.688;2023-06-26T02:27:26;10.03;;;9.13;;
4957;SDS011;2494;51.872;9.688;2023-06-26T02:30:14;10.03;;;9.23;;
4957;SDS011;2494;51.872;9.688;2023-06-26T02:33:01;10.00;;;9.10;;
4957;SDS011;2494;51.872;9.688;2023-06-26T02:35:47;9.63;;;8.83;;
4957;SDS011;2494;51.872;9.688;2023-06-26T02:38:37;9.23;;;8.70;;
4957;SDS011;2494;51.872;9.688;2023-06-26T02:41:22;9.60;;;8.90;;
4957;SDS011;2494;51.872;9.688;2023-06-26T02:44:08;9.90;;;9.00;;
4957;SDS011;2494;51.872;9.688;2023-06-26T02:46:55;9.63;;;8.97;;
4957;SDS011;2494;51.872;9.688;2023-06-26T02:49:42;9.87;;;9.07;;
4957;SDS011;2494;51.872;9.688;2023-06-26T02:52:27;11.63;;;10.53;;
4957;SDS011;2494;51.872;9.688;2023-06-26T02:55:13;9.87;;;9.10;;
4957;SDS011;2494;51.872;9.688;2023-06-26T02:57:58;9.50;;;8.80;;
4957;SDS011;2494;51.872;9.688;2023-06-26T03:00:44;9.67;;;8.87;;
4957;SDS011;2494;51.872;9.688;2023-06-26T03:03:31;10.27;;;9.57;;
4957;SDS011;2494;51.872;9.688;2023-06-26T03:06:28;9.80;;;9.00;;
4957;SDS011;2494;51.872;9.688;2023-06-26T03:09:14;10.20;;;9.50;;
4957;SDS011;2494;51.872;9.688;2023-06-26T03:12:00;9.40;;;8.50;;
4957;SDS011;2494;51.872;9.688;2023-06-26T03:14:45;9.80;;;8.93;;
4957;SDS011;2494;51.872;9.688;2023-06-26T03:17:30;9.70;;;9.10;;
4957;SDS011;2494;51.872;9.688;2023-06-26T03:20:16;9.73;;;8.77;;
4957;SDS011;2494;51.872;9.688;2023-06-26T03:23:02;10.03;;;9.43;;
4957;SDS011;2494;51.872;9.688;2023-06-26T03:25:48;10.93;;;9.63;;
4957;SDS011;2494;51.872;9.688;2023-06-26T03:28:34;10.40;;;9.20;;
4957;SDS011;2494;51.872;9.688;2023-06-26T03:31:20;10.77;;;9.67;;
4957;SDS011;2494;51.872;9.688;2023-06-26T03:34:06;9.93;;;9.13;;
4957;SDS011;2494;51.872;9.688;2023-06-26T03:36:51;10.93;;;9.93;;
4957;SDS011;2494;51.872;9.688;2023-06-26T03:39:38;9.97;;;9.27;;
4957;SDS011;2494;51.872;9.688;2023-06-26T03:42:24;10.10;;;9.30;;
4957;SDS011;2494;51.872;9.688;2023-06-26T03:45:12;11.00;;;10.20;;
4957;SDS011;2494;51.872;9.688;2023-06-26T03:47:58;9.67;;;8.97;;
4957;SDS011;2494;51.872;9.688;2023-06-26T03:50:46;8.87;;;8.27;;
4957;SDS011;2494;51.872;9.688;2023-06-26T03:53:32;9.83;;;9.03;;
4957;SDS011;2494;51.872;9.688;2023-06-26T03:56:21;10.07;;;9.27;;
4957;SDS011;2494;51.872;9.688;2023-06-26T03:59:08;9.73;;;8.83;;
4957;SDS011;2494;51.872;9.688;2023-06-26T04:01:54;10.70;;;9.70;;
4957;SDS011;2494;51.872;9.688;2023-06-26T04:04:40;10.00;;;9.03;;
4957;SDS011;2494;51.872;9.688;2023-06-26T04:07:25;9.40;;;8.70;;
4957;SDS011;2494;51.872;9.688;2023-06-26T04:10:11;10.00;;;9.10;;
4957;SDS011;2494;51.872;9.688;2023-06-26T04:12:58;9.57;;;8.67;;
4957;SDS011;2494;51.872;9.688;2023-06-26T04:15:44;8.93;;;8.33;;
4957;SDS011;2494;51.872;9.688;2023-06-26T04:18:31;8.10;;;7.50;;
4957;SDS011;2494;51.872;9.688;2023-06-26T04:21:19;8.30;;;7.70;;
4957;SDS011;2494;51.872;9.688;2023-06-26T04:24:05;7.77;;;7.27;;
4957;SDS011;2494;51.872;9.688;2023-06-26T04:26:50;7.03;;;6.63;;
4957;SDS011;2494;51.872;9.688;2023-06-26T04:29:38;8.77;;;8.07;;
4957;SDS011;2494;51.872;9.688;2023-06-26T04:32:23;7.27;;;6.87;;
4957;SDS011;2494;51.872;9.688;2023-06-26T04:35:09;7.97;;;7.37;;
4957;SDS011;2494;51.872;9.688;2023-06-26T04:37:57;9.83;;;7.57;;
4957;SDS011;2494;51.872;9.688;2023-06-26T04:40:43;7.60;;;7.10;;
4957;SDS011;2494;51.872;9.688;2023-06-26T04:43:29;6.93;;;6.43;;
4957;SDS011;2494;51.872;9.688;2023-06-26T04:46:16;6.63;;;6.23;;
4957;SDS011;2494;51.872;9.688;2023-06-26T04:49:02;6.00;;;5.60;;
4957;SDS011;2494;51.872;9.688;2023-06-26T04:51:47;6.37;;;5.93;;
4957;SDS011;2494;51.872;9.688;2023-06-26T04:54:34;6.50;;;6.00;;
4957;SDS011;2494;51.872;9.688;2023-06-26T04:57:23;6.63;;;6.03;;
4957;SDS011;2494;51.872;9.688;2023-06-26T05:00:09;7.27;;;5.93;;
4957;SDS011;2494;51.872;9.688;2023-06-26T05:03:02;5.57;;;5.07;;
4957;SDS011;2494;51.872;9.688;2023-06-26T05:05:47;7.47;;;5.17;;
4957;SDS011;2494;51.872;9.688;2023-06-26T05:08:33;5.47;;;5.07;;
4957;SDS011;2494;51.872;9.688;2023-06-26T05:11:22;6.37;;;6.07;;
4957;SDS011;2494;51.872;9.688;2023-06-26T05:14:08;5.00;;;4.80;;
4957;SDS011;2494;51.872;9.688;2023-06-26T05:16:56;6.10;;;5.47;;
4957;SDS011;2494;51.872;9.688;2023-06-26T05:19:43;5.53;;;5.13;;
4957;SDS011;2494;51.872;9.688;2023-06-26T05:22:29;5.70;;;5.40;;
4957;SDS011;2494;51.872;9.688;2023-06-26T05:25:15;5.30;;;4.93;;
4957;SDS011;2494;51.872;9.688;2023-06-26T05:28:01;5.73;;;5.23;;
4957;SDS011;2494;51.872;9.688;2023-06-26T05:30:49;5.53;;;5.27;;
4957;SDS011;2494;51.872;9.688;2023-06-26T05:33:35;6.03;;;5.73;;
4957;SDS011;2494;51.872;9.688;2023-06-26T05:36:26;6.37;;;5.87;;
4957;SDS011;2494;51.872;9.688;2023-06-26T05:39:14;5.77;;;5.37;;
4957;SDS011;2494;51.872;9.688;2023-06-26T05:42:06;5.63;;;5.43;;
4957;SDS011;2494;51.872;9.688;2023-06-26T05:44:52;5.93;;;5.40;;
4957;SDS011;2494;51.872;9.688;2023-06-26T05:47:38;6.00;;;5.70;;
4957;SDS011;2494;51.872;9.688;2023-06-26T05:50:24;5.60;;;5.30;;
4957;SDS011;2494;51.872;9.688;2023-06-26T05:53:12;6.83;;;6.43;;
4957;SDS011;2494;51.872;9.688;2023-06-26T05:55:59;6.10;;;5.80;;
4957;SDS011;2494;51.872;9.688;2023-06-26T05:58:44;6.50;;;5.90;;
4957;SDS011;2494;51.872;9.688;2023-06-26T06:01:34;6.27;;;5.87;;
4957;SDS011;2494;51.872;9.688;2023-06-26T06:04:20;6.53;;;6.23;;
4957;SDS011;2494;51.872;9.688;2023-06-26T06:07:08;6.33;;;5.93;;
4957;SDS011;2494;51.872;9.688;2023-06-26T06:09:56;5.80;;;5.40;;
4957;SDS011;2494;51.872;9.688;2023-06-26T06:12:41;6.57;;;6.17;;
4957;SDS011;2494;51.872;9.688;2023-06-26T06:15:27;6.73;;;6.13;;
4957;SDS011;2494;51.872;9.688;2023-06-26T06:18:12;6.57;;;6.17;;
4957;SDS011;2494;51.872;9.688;2023-06-26T06:21:00;6.73;;;6.33;;
4957;SDS011;2494;51.872;9.688;2023-06-26T06:23:52;6.77;;;6.40;;
4957;SDS011;2494;51.872;9.688;2023-06-26T06:26:40;6.50;;;6.00;;
4957;SDS011;2494;51.872;9.688;2023-06-26T06:29:26;7.20;;;6.73;;
4957;SDS011;2494;51.872;9.688;2023-06-26T06:32:11;6.90;;;6.30;;
4957;SDS011;2494;51.872;9.688;2023-06-26T06:34:57;6.53;;;5.93;;
4957;SDS011;2494;51.872;9.688;2023-06-26T06:37:43;7.90;;;7.30;;
4957;SDS011;2494;51.872;9.688;2023-06-26T06:40:29;6.00;;;5.60;;
4957;SDS011;2494;51.872;9.688;2023-06-26T06:43:22;6.53;;;6.03;;
4957;SDS011;2494;51.872;9.688;2023-06-26T06:46:08;6.17;;;5.77;;
4957;SDS011;2494;51.872;9.688;2023-06-26T06:48:55;6.77;;;6.30;;
4957;SDS011;2494;51.872;9.688;2023-06-26T06:51:41;5.70;;;5.37;;
4957;SDS011;2494;51.872;9.688;2023-06-26T06:54:27;6.80;;;5.67;;
4957;SDS011;2494;51.872;9.688;2023-06-26T06:57:16;5.73;;;5.30;;
4957;SDS011;2494;51.872;9.688;2023-06-26T07:00:04;6.57;;;6.13;;
4957;SDS011;2494;51.872;9.688;2023-06-26T07:02:52;8.07;;;5.53;;
4957;SDS011;2494;51.872;9.688;2023-06-26T07:05:42;6.23;;;5.93;;
4957;SDS011;2494;51.872;9.688;2023-06-26T07:08:30;6.23;;;5.80;;
4957;SDS011;2494;51.872;9.688;2023-06-26T07:11:15;6.03;;;5.53;;
4957;SDS011;2494;51.872;9.688;2023-06-26T07:14:01;5.53;;;5.23;;
4957;SDS011;2494;51.872;9.688;2023-06-26T07:16:51;5.77;;;5.37;;
4957;SDS011;2494;51.872;9.688;2023-06-26T07:19:36;6.80;;;6.20;;
4957;SDS011;2494;51.872;9.688;2023-06-26T07:22:25;6.33;;;5.77;;
4957;SDS011;2494;51.872;9.688;2023-06-26T07:25:11;5.20;;;4.90;;
4957;SDS011;2494;51.872;9.688;2023-06-26T07:28:00;5.77;;;5.47;;
4957;SDS011;2494;51.872;9.688;2023-06-26T07:30:45;5.37;;;4.80;;
4957;SDS011;2494;51.872;9.688;2023-06-26T07:33:32;5.83;;;5.43;;
4957;SDS011;2494;51.872;9.688;2023-06-26T07:36:18;5.43;;;4.93;;
4957;SDS011;2494;51.872;9.688;2023-06-26T07:39:06;4.80;;;4.40;;
4957;SDS011;2494;51.872;9.688;2023-06-26T07:41:57;4.90;;;4.40;;
4957;SDS011;2494;51.872;9.688;2023-06-26T07:44:43;4.40;;;4.13;;
4957;SDS011;2494;51.872;9.688;2023-06-26T07:47:29;4.00;;;3.73;;
4957;SDS011;2494;51.872;9.688;2023-06-26T07:50:22;4.60;;;4.40;;
4957;SDS011;2494;51.872;9.688;2023-06-26T07:53:14;5.37;;;4.97;;
4957;SDS011;2494;51.872;9.688;2023-06-26T07:56:00;5.63;;;5.33;;
4957;SDS011;2494;51.872;9.688;2023-06-26T07:58:49;4.80;;;4.50;;
4957;SDS011;2494;51.872;9.688;2023-06-26T08:01:34;4.20;;;4.00;;
4957;SDS011;2494;51.872;9.688;2023-06-26T08:04:21;5.43;;;5.13;;
4957;SDS011;2494;51.872;9.688;2023-06-26T08:07:08;4.60;;;4.40;;
4957;SDS011;2494;51.872;9.688;2023-06-26T08:09:53;4.57;;;4.37;;
4957;SDS011;2494;51.872;9.688;2023-06-26T08:12:42;5.23;;;4.90;;
4957;SDS011;2494;51.872;9.688;2023-06-26T08:15:29;5.40;;;5.00;;
4957;SDS011;2494;51.872;9.688;2023-06-26T08:18:15;7.17;;;4.80;;
4957;SDS011;2494;51.872;9.688;2023-06-26T08:21:00;5.77;;;5.27;;
4957;SDS011;2494;51.872;9.688;2023-06-26T08:23:48;5.00;;;4.80;;
4957;SDS011;2494;51.872;9.688;2023-06-26T08:26:34;5.40;;;5.10;;
4957;SDS011;2494;51.872;9.688;2023-06-26T08:29:21;5.10;;;4.80;;
4957;SDS011;2494;51.872;9.688;2023-06-26T08:32:06;5.30;;;5.03;;
4957;SDS011;2494;51.872;9.688;2023-06-26T08:34:52;5.03;;;4.63;;
4957;SDS011;2494;51.872;9.688;2023-06-26T08:37:38;5.30;;;5.00;;
4957;SDS011;2494;51.872;9.688;2023-06-26T08:40:25;6.50;;;6.10;;
4957;SDS011;2494;51.872;9.688;2023-06-26T08:43:11;5.83;;;5.53;;
4957;SDS011;2494;51.872;9.688;2023-06-26T08:45:57;4.50;;;4.30;;
4957;SDS011;2494;51.872;9.688;2023-06-26T08:48:45;5.50;;;5.27;;
4957;SDS011;2494;51.872;9.688;2023-06-26T08:51:33;5.03;;;4.63;;
4957;SDS011;2494;51.872;9.688;2023-06-26T08:54:22;6.63;;;6.30;;
4957;SDS011;2494;51.872;9.688;2023-06-26T08:57:15;5.57;;;5.03;;
4957;SDS011;2494;51.872;9.688;2023-06-26T09:00:03;6.87;;;6.33;;
4957;SDS011;2494;51.872;9.688;2023-06-26T09:02:48;5.47;;;5.27;;
4957;SDS011;2494;51.872;9.688;2023-06-26T09:05:36;5.57;;;5.20;;
4957;SDS011;2494;51.872;9.688;2023-06-26T09:08:25;6.40;;;6.00;;
4957;SDS011;2494;51.872;9.688;2023-06-26T09:11:10;6.50;;;6.00;;
4957;SDS011;2494;51.872;9.688;2023-06-26T09:13:57;6.53;;;6.13;;
4957;SDS011;2494;51.872;9.688;2023-06-26T09:16:43;6.30;;;5.80;;
4957;SDS011;2494;51.872;9.688;2023-06-26T09:19:32;5.50;;;5.10;;
4957;SDS011;2494;51.872;9.688;2023-06-26T09:22:20;5.73;;;5.33;;
4957;SDS011;2494;51.872;9.688;2023-06-26T09:25:07;6.30;;;5.70;;
4957;SDS011;2494;51.872;9.688;2023-06-26T09:27:53;5.77;;;4.93;;
4957;SDS011;2494;51.872;9.688;2023-06-26T09:30:43;5.93;;;5.43;;
4957;SDS011;2494;51.872;9.688;2023-06-26T09:33:33;6.00;;;5.50;;
4957;SDS011;2494;51.872;9.688;2023-06-26T09:36:21;5.87;;;5.47;;
4957;SDS011;2494;51.872;9.688;2023-06-26T09:39:07;5.30;;;5.00;;
4957;SDS011;2494;51.872;9.688;2023-06-26T09:41:54;7.60;;;4.97;;
4957;SDS011;2494;51.872;9.688;2023-06-26T09:44:43;5.17;;;4.87;;
4957;SDS011;2494;51.872;9.688;2023-06-26T09:47:34;9.10;;;6.03;;
4957;SDS011;2494;51.872;9.688;2023-06-26T09:50:23;7.37;;;6.67;;
4957;SDS011;2494;51.872;9.688;2023-06-26T09:53:11;7.07;;;5.93;;
4957;SDS011;2494;51.872;9.688;2023-06-26T09:55:58;7.00;;;6.40;;
4957;SDS011;2494;51.872;9.688;2023-06-26T09:58:44;7.50;;;6.87;;
4957;SDS011;2494;51.872;9.688;2023-06-26T10:01:30;13.03;;;7.53;;
4957;SDS011;2494;51.872;9.688;2023-06-26T10:04:20;7.23;;;6.60;;
4957;SDS011;2494;51.872;9.688;2023-06-26T10:07:07;7.30;;;6.90;;
4957;SDS011;2494;51.872;9.688;2023-06-26T10:09:53;7.90;;;7.30;;
4957;SDS011;2494;51.872;9.688;2023-06-26T10:12:40;7.27;;;6.87;;
4957;SDS011;2494;51.872;9.688;2023-06-26T10:15:25;6.87;;;6.20;;
4957;SDS011;2494;51.872;9.688;2023-06-26T10:18:12;7.73;;;6.80;;
4957;SDS011;2494;51.872;9.688;2023-06-26T10:21:03;8.03;;;7.30;;
4957;SDS011;2494;51.872;9.688;2023-06-26T10:23:51;8.10;;;7.40;;
4957;SDS011;2494;51.872;9.688;2023-06-26T10:26:38;6.90;;;6.40;;
4957;SDS011;2494;51.872;9.688;2023-06-26T10:29:27;7.23;;;6.73;;
4957;SDS011;2494;51.872;9.688;2023-06-26T10:32:14;7.10;;;5.83;;
4957;SDS011;2494;51.872;9.688;2023-06-26T10:35:05;7.77;;;7.30;;
4957;SDS011;2494;51.872;9.688;2023-06-26T10:38:00;8.33;;;7.53;;
4957;SDS011;2494;51.872;9.688;2023-06-26T10:40:49;9.90;;;7.50;;
4957;SDS011;2494;51.872;9.688;2023-06-26T10:43:36;7.73;;;7.00;;
4957;SDS011;2494;51.872;9.688;2023-06-26T10:46:29;8.47;;;7.80;;
4957;SDS011;2494;51.872;9.688;2023-06-26T10:49:25;9.33;;;8.43;;
4957;SDS011;2494;51.872;9.688;2023-06-26T10:52:14;11.70;;;8.40;;
4957;SDS011;2494;51.872;9.688;2023-06-26T10:55:06;11.10;;;9.80;;
4957;SDS011;2494;51.872;9.688;2023-06-26T10:57:54;10.73;;;9.30;;
4957;SDS011;2494;51.872;9.688;2023-06-26T11:00:49;9.40;;;8.57;;
4957;SDS011;2494;51.872;9.688;2023-06-26T11:03:36;10.20;;;8.80;;
4957;SDS011;2494;51.872;9.688;2023-06-26T11:06:23;10.03;;;9.10;;
4957;SDS011;2494;51.872;9.688;2023-06-26T11:09:15;11.13;;;8.23;;
4957;SDS011;2494;51.872;9.688;2023-06-26T11:12:07;8.00;;;7.40;;
4957;SDS011;2494;51.872;9.688;2023-06-26T11:14:52;9.20;;;8.17;;
4957;SDS011;2494;51.872;9.688;2023-06-26T11:17:38;8.90;;;8.10;;
4957;SDS011;2494;51.872;9.688;2023-06-26T11:20:26;8.60;;;7.77;;
4957;SDS011;2494;51.872;9.688;2023-06-26T11:23:12;8.30;;;7.50;;
4957;SDS011;2494;51.872;9.688;2023-06-26T11:25:58;8.03;;;7.10;;
4957;SDS011;2494;51.872;9.688;2023-06-26T11:28:59;8.77;;;8.07;;
4957;SDS011;2494;51.872;9.688;2023-06-26T11:31:48;8.93;;;8.03;;
4957;SDS011;2494;51.872;9.688;2023-06-26T11:34:49;10.17;;;7.30;;
4957;SDS011;2494;51.872;9.688;2023-06-26T11:37:38;7.40;;;6.70;;
4957;SDS011;2494;51.872;9.688;2023-06-26T11:40:26;8.00;;;7.40;;
4957;SDS011;2494;51.872;9.688;2023-06-26T11:43:14;7.90;;;6.83;;
4957;SDS011;2494;51.872;9.688;2023-06-26T11:46:02;8.83;;;7.30;;
4957;SDS011;2494;51.872;9.688;2023-06-26T11:48:48;7.80;;;7.10;;
4957;SDS011;2494;51.872;9.688;2023-06-26T11:51:34;7.50;;;6.73;;
4957;SDS011;2494;51.872;9.688;2023-06-26T11:54:26;7.67;;;7.00;;
4957;SDS011;2494;51.872;9.688;2023-06-26T11:57:16;8.90;;;7.27;;
4957;SDS011;2494;51.872;9.688;2023-06-26T12:00:12;10.07;;;7.10;;
4957;SDS011;2494;51.872;9.688;2023-06-26T12:03:00;9.83;;;6.80;;
4957;SDS011;2494;51.872;9.688;2023-06-26T12:05:47;7.40;;;6.20;;
4957;SDS011;2494;51.872;9.688;2023-06-26T12:08:36;8.00;;;7.00;;
4957;SDS011;2494;51.872;9.688;2023-06-26T12:11:22;8.43;;;6.87;;
4957;SDS011;2494;51.872;9.688;2023-06-26T12:14:08;10.10;;;7.70;;
4957;SDS011;2494;51.872;9.688;2023-06-26T12:16:54;8.57;;;7.23;;
4957;SDS011;2494;51.872;9.688;2023-06-26T12:19:44;10.13;;;6.63;;
4957;SDS011;2494;51.872;9.688;2023-06-26T12:22:33;7.53;;;6.83;;
4957;SDS011;2494;51.872;9.688;2023-06-26T12:25:22;7.07;;;6.47;;
4957;SDS011;2494;51.872;9.688;2023-06-26T12:28:16;10.40;;;7.10;;
4957;SDS011;2494;51.872;9.688;2023-06-26T12:34:08;11.07;;;6.80;;
4957;SDS011;2494;51.872;9.688;2023-06-26T12:37:00;7.57;;;6.80;;
4957;SDS011;2494;51.872;9.688;2023-06-26T12:39:45;9.30;;;6.50;;
4957;SDS011;2494;51.872;9.688;2023-06-26T12:42:52;8.37;;;7.57;;
4957;SDS011;2494;51.872;9.688;2023-06-26T12:45:38;6.60;;;6.10;;
4957;SDS011;2494;51.872;9.688;2023-06-26T12:48:35;7.03;;;6.40;;
4957;SDS011;2494;51.872;9.688;2023-06-26T12:51:28;10.43;;;6.37;;
4957;SDS011;2494;51.872;9.688;2023-06-26T12:54:14;8.60;;;6.53;;
4957;SDS011;2494;51.872;9.688;2023-06-26T12:57:03;6.43;;;5.83;;
4957;SDS011;2494;51.872;9.688;2023-06-26T12:59:52;6.30;;;5.67;;
4957;SDS011;2494;51.872;9.688;2023-06-26T13:02:37;7.47;;;6.63;;
4957;SDS011;2494;51.872;9.688;2023-06-26T13:05:23;7.23;;;5.57;;
4957;SDS011;2494;51.872;9.688;2023-06-26T13:08:13;6.23;;;5.73;;
4957;SDS011;2494;51.872;9.688;2023-06-26T13:11:02;6.33;;;5.50;;
4957;SDS011;2494;51.872;9.688;2023-06-26T13:13:48;6.33;;;5.37;;
4957;SDS011;2494;51.872;9.688;2023-06-26T13:16:34;6.17;;;4.33;;
4957;SDS011;2494;51.872;9.688;2023-06-26T13:19:22;6.30;;;4.93;;
4957;SDS011;2494;51.872;9.688;2023-06-26T13:22:10;4.50;;;4.20;;
4957;SDS011;2494;51.872;9.688;2023-06-26T13:24:59;4.63;;;4.33;;
4957;SDS011;2494;51.872;9.688;2023-06-26T13:27:46;5.10;;;3.90;;
4957;SDS011;2494;51.872;9.688;2023-06-26T13:30:31;4.17;;;3.80;;
4957;SDS011;2494;51.872;9.688;2023-06-26T13:33:19;4.70;;;4.40;;
4957;SDS011;2494;51.872;9.688;2023-06-26T13:36:06;4.40;;;3.70;;
4957;SDS011;2494;51.872;9.688;2023-06-26T13:38:56;4.30;;;3.90;;
4957;SDS011;2494;51.872;9.688;2023-06-26T13:41:43;3.63;;;3.30;;
4957;SDS011;2494;51.872;9.688;2023-06-26T13:44:33;5.03;;;4.17;;
4957;SDS011;2494;51.872;9.688;2023-06-26T13:47:20;4.00;;;3.70;;
4957;SDS011;2494;51.872;9.688;2023-06-26T13:50:06;4.63;;;3.17;;
4957;SDS011;2494;51.872;9.688;2023-06-26T13:52:55;3.83;;;2.90;;
4957;SDS011;2494;51.872;9.688;2023-06-26T13:55:41;4.97;;;3.43;;
4957;SDS011;2494;51.872;9.688;2023-06-26T13:58:29;3.40;;;3.20;;
4957;SDS011;2494;51.872;9.688;2023-06-26T14:01:19;6.23;;;3.30;;
4957;SDS011;2494;51.872;9.688;2023-06-26T14:04:05;4.30;;;2.90;;
4957;SDS011;2494;51.872;9.688;2023-06-26T14:06:52;5.07;;;3.10;;
4957;SDS011;2494;51.872;9.688;2023-06-26T14:09:45;5.23;;;2.97;;
4957;SDS011;2494;51.872;9.688;2023-06-26T14:12:30;3.27;;;2.97;;
4957;SDS011;2494;51.872;9.688;2023-06-26T14:15:15;5.07;;;3.23;;
4957;SDS011;2494;51.872;9.688;2023-06-26T14:18:02;3.50;;;2.80;;
4957;SDS011;2494;51.872;9.688;2023-06-26T14:20:48;3.37;;;2.57;;
4957;SDS011;2494;51.872;9.688;2023-06-26T14:23:33;3.17;;;2.83;;
4957;SDS011;2494;51.872;9.688;2023-06-26T14:26:20;3.13;;;2.43;;
4957;SDS011;2494;51.872;9.688;2023-06-26T14:29:06;3.47;;;2.40;;
4957;SDS011;2494;51.872;9.688;2023-06-26T14:31:52;3.23;;;2.03;;
4957;SDS011;2494;51.872;9.688;2023-06-26T14:34:40;3.00;;;2.40;;
4957;SDS011;2494;51.872;9.688;2023-06-26T14:37:26;4.83;;;2.30;;
4957;SDS011;2494;51.872;9.688;2023-06-26T14:40:15;2.90;;;2.60;;
4957;SDS011;2494;51.872;9.688;2023-06-26T14:43:01;3.20;;;2.33;;
4957;SDS011;2494;51.872;9.688;2023-06-26T14:45:53;2.40;;;2.23;;
4957;SDS011;2494;51.872;9.688;2023-06-26T14:48:40;3.00;;;2.70;;
4957;SDS011;2494;51.872;9.688;2023-06-26T14:51:27;3.63;;;2.77;;
4957;SDS011;2494;51.872;9.688;2023-06-26T14:54:13;3.20;;;2.40;;
4957;SDS011;2494;51.872;9.688;2023-06-26T14:56:59;2.27;;;2.13;;
4957;SDS011;2494;51.872;9.688;2023-06-26T14:59:46;5.10;;;2.63;;
4957;SDS011;2494;51.872;9.688;2023-06-26T15:02:35;3.27;;;2.50;;
4957;SDS011;2494;51.872;9.688;2023-06-26T15:05:21;2.40;;;2.20;;
4957;SDS011;2494;51.872;9.688;2023-06-26T15:08:11;6.73;;;2.50;;
4957;SDS011;2494;51.872;9.688;2023-06-26T15:11:01;3.00;;;2.70;;
4957;SDS011;2494;51.872;9.688;2023-06-26T15:13:48;3.83;;;2.20;;
4957;SDS011;2494;51.872;9.688;2023-06-26T15:16:33;5.63;;;2.57;;
4957;SDS011;2494;51.872;9.688;2023-06-26T15:19:18;5.53;;;2.70;;
4957;SDS011;2494;51.872;9.688;2023-06-26T15:22:07;4.47;;;2.50;;
4957;SDS011;2494;51.872;9.688;2023-06-26T15:24:57;4.53;;;2.80;;
4957;SDS011;2494;51.872;9.688;2023-06-26T15:27:46;2.53;;;2.27;;
4957;SDS011;2494;51.872;9.688;2023-06-26T15:30:31;3.63;;;2.10;;
4957;SDS011;2494;51.872;9.688;2023-06-26T15:33:17;5.37;;;2.50;;
4957;SDS011;2494;51.872;9.688;2023-06-26T15:36:03;2.67;;;2.30;;
4957;SDS011;2494;51.872;9.688;2023-06-26T15:38:48;3.40;;;2.60;;
4957;SDS011;2494;51.872;9.688;2023-06-26T15:41:35;3.30;;;2.13;;
4957;SDS011;2494;51.872;9.688;2023-06-26T15:44:22;2.70;;;2.50;;
4957;SDS011;2494;51.872;9.688;2023-06-26T15:47:07;2.90;;;2.70;;
4957;SDS011;2494;51.872;9.688;2023-06-26T15:49:53;4.47;;;2.40;;
4957;SDS011;2494;51.872;9.688;2023-06-26T15:52:38;2.63;;;2.43;;
4957;SDS011;2494;51.872;9.688;2023-06-26T15:55:24;3.00;;;2.70;;
4957;SDS011;2494;51.872;9.688;2023-06-26T15:58:11;2.80;;;2.57;;
4957;SDS011;2494;51.872;9.688;2023-06-26T16:00:57;6.60;;;3.30;;
4957;SDS011;2494;51.872;9.688;2023-06-26T16:03:42;4.13;;;2.53;;
4957;SDS011;2494;51.872;9.688;2023-06-26T16:06:28;4.50;;;2.50;;
4957;SDS011;2494;51.872;9.688;2023-06-26T16:09:17;2.87;;;2.50;;
4957;SDS011;2494;51.872;9.688;2023-06-26T16:12:02;3.30;;;3.00;;
4957;SDS011;2494;51.872;9.688;2023-06-26T16:14:53;2.57;;;2.33;;
4957;SDS011;2494;51.872;9.688;2023-06-26T16:17:42;4.37;;;3.20;;
4957;SDS011;2494;51.872;9.688;2023-06-26T16:20:27;2.40;;;2.20;;
4957;SDS011;2494;51.872;9.688;2023-06-26T16:26:24;3.10;;;2.67;;
4957;SDS011;2494;51.872;9.688;2023-06-26T16:29:09;2.80;;;2.60;;
4957;SDS011;2494;51.872;9.688;2023-06-26T16:31:56;7.60;;;3.40;;
4957;SDS011;2494;51.872;9.688;2023-06-26T16:34:41;2.77;;;2.40;;
4957;SDS011;2494;51.872;9.688;2023-06-26T16:37:27;4.47;;;2.10;;
4957;SDS011;2494;51.872;9.688;2023-06-26T16:40:13;4.97;;;2.60;;
4957;SDS011;2494;51.872;9.688;2023-06-26T16:42:59;4.97;;;2.87;;
4957;SDS011;2494;51.872;9.688;2023-06-26T16:45:45;3.40;;;2.60;;
4957;SDS011;2494;51.872;9.688;2023-06-26T16:48:31;2.60;;;2.23;;
4957;SDS011;2494;51.872;9.688;2023-06-26T16:51:17;3.67;;;2.00;;
4957;SDS011;2494;51.872;9.688;2023-06-26T16:54:06;2.50;;;2.20;;
4957;SDS011;2494;51.872;9.688;2023-06-26T16:56:51;4.80;;;1.80;;
4957;SDS011;2494;51.872;9.688;2023-06-26T16:59:37;6.33;;;2.10;;
4957;SDS011;2494;51.872;9.688;2023-06-26T17:02:22;2.40;;;1.70;;
4957;SDS011;2494;51.872;9.688;2023-06-26T17:05:11;1.93;;;1.40;;
4957;SDS011;2494;51.872;9.688;2023-06-26T17:07:56;3.30;;;1.40;;
4957;SDS011;2494;51.872;9.688;2023-06-26T17:10:41;2.63;;;2.43;;
4957;SDS011;2494;51.872;9.688;2023-06-26T17:13:27;2.60;;;1.93;;
4957;SDS011;2494;51.872;9.688;2023-06-26T17:16:15;2.67;;;1.90;;
4957;SDS011;2494;51.872;9.688;2023-06-26T17:19:00;2.63;;;1.60;;
4957;SDS011;2494;51.872;9.688;2023-06-26T17:21:48;2.70;;;1.80;;